Solano, NM

11:46 AM MDT on July 24, 2014 (GMT -0600)
Tucumcari Municipal (KTCC) Elev 4065 ft | 35.18 °N, 103.60 °W | Change Station

Current weather conditions updated 53 minutes ago

Clear
Clear
92 °F
Feels Like 90 °F
N
15
Wind Variable Wind from WSW

Today is forecast to be Cooler than yesterday.

Today
High -- | Low -- °F
--% Chance of Precip.
Yesterday
High -- | Low -- °F
Precip. -- in
5:58 AM 8:07 PM
Waning Crescent, 4% visible
Pressure 29.98 in
Visibility 10.0 miles
Clouds Clear
Heat Index 90 °F
Dew Point 54 °F
Humidity 27%
Rainfall 0.00 in
Snow Depth Not available.
UV 10 out of 12
Pollen 4.40 out of 12
Air Quality Not available.
Flu Activity Not available.
METAR KTCC 241653Z AUTO 24013KT 10SM CLR 33/12 A3019 RMK AO2 SLP150 T03330122

More Conditions Fewer Conditions

Pressure 29.98 in
Visibility 10.0 miles
Clouds Clear
Heat Index 90 °F
Dew Point 54 °F
Humidity 27%
Rainfall 0.00 in
Snow Depth Not available.
UV 10 out of 12
Pollen 4.40 out of 12
Air Quality Not available.
Flu Activity Not available.
METAR KTCC 241653Z AUTO 24013KT 10SM CLR 33/12 A3019 RMK AO2 SLP150 T03330122

More Conditions Fewer Conditions

10-Day Weather Forecast

Almanac

Astronomy

Jul. 24, 2014 Rise Set
Actual Time 5:58 AM MDT 8:07 PM MDT
Civil Twilight 5:29 AM MDT 8:36 PM MDT
Nautical Twilight 4:54 AM MDT 9:11 PM MDT
Astronomical Twilight 4:16 AM MDT 9:49 PM MDT
Moon 4:07 AM MDT 6:25 PM MDT
Length of Visible Light 15h 06m
Length of Day
14h 09m
Tomorrow will be 1m 29s shorter.
Waning Crescent, 4% of the Moon is Illuminated
Today
Waning Crescent
Jul 26
New
Aug 3
First Quarter
Aug 10
Full
Aug 17
Last Quarter

Today's Extremes

State Highs State Lows

Community

WunderPhotos

Upload Photos

1,737,079 photos uploaded!

Nearby

Snow Depth

Station Depth Elevation
Wesner Springs 0 in 11120 ft
Gallegos Peak 0 in 9800 ft
Elk Cabin 140 in 8210 ft
Santa Fe 1 in 11445 ft
North Costilla 1 in 10600 ft

Earthquake Activity

City Distance Mag. Time & Date
No recent earthquake activity has been reported nearby.
Minimum magnitude displayed is 2.5.

Coastal Water Temperatures

Place Temperature
No Stations Reporting

Nearby Weather Stations

There are no personal weather stations in this area.